createdAt,value
2018-04-30T00:03:24.588Z,99.90
2018-04-30T00:08:28.328Z,99.90
2018-04-30T00:13:32.105Z,99.90
2018-04-30T00:18:34.957Z,99.90
2018-04-30T00:23:37.762Z,99.90
2018-04-30T00:28:40.549Z,99.90
2018-04-30T00:33:43.434Z,99.90
2018-04-30T00:38:46.192Z,99.90
2018-04-30T00:43:49.013Z,99.90
2018-04-30T00:48:52.120Z,99.90
2018-04-30T00:53:54.986Z,99.90
2018-04-30T00:58:58.793Z,99.90
2018-04-30T01:04:01.600Z,99.90
2018-04-30T01:09:04.569Z,99.90
2018-04-30T01:14:08.273Z,99.90
2018-04-30T01:19:11.202Z,99.90
2018-04-30T01:24:14.381Z,99.90
2018-04-30T01:29:18.286Z,99.90
2018-04-30T01:34:21.325Z,99.90
2018-04-30T01:39:24.984Z,99.90
2018-04-30T01:44:27.895Z,99.90
2018-04-30T01:49:30.926Z,99.90
2018-04-30T01:54:34.161Z,99.90
2018-04-30T01:59:37.219Z,99.90
2018-04-30T02:04:40.143Z,99.90
2018-04-30T02:09:43.262Z,99.90
2018-04-30T02:14:50.349Z,99.90
2018-04-30T02:19:53.231Z,99.90
2018-04-30T02:24:56.314Z,99.90
2018-04-30T02:30:07.180Z,99.90
2018-04-30T02:35:10.227Z,99.90
2018-04-30T02:40:13.301Z,99.90
2018-04-30T02:45:16.122Z,99.90
2018-04-30T02:50:19.115Z,99.90
2018-04-30T02:55:22.938Z,99.90
2018-04-30T03:00:27.615Z,99.90
2018-04-30T03:05:30.760Z,99.90
2018-04-30T03:10:34.993Z,99.90
2018-04-30T03:15:37.870Z,99.90
2018-04-30T03:20:40.884Z,99.90
2018-04-30T03:25:43.814Z,99.90
2018-04-30T03:30:47.568Z,99.90
2018-04-30T03:35:50.620Z,99.90
2018-04-30T03:40:53.611Z,99.90
2018-04-30T03:45:56.971Z,99.90
2018-04-30T03:51:01.311Z,99.90
2018-04-30T03:56:04.312Z,99.90
2018-04-30T04:01:20.245Z,99.90
2018-04-30T04:06:37.519Z,99.90
2018-04-30T04:11:42.044Z,99.90
2018-04-30T04:16:46.812Z,99.90
2018-04-30T04:21:50.974Z,99.90
2018-04-30T04:26:58.490Z,99.90
2018-04-30T04:32:01.435Z,99.90
2018-04-30T04:37:10.102Z,99.90
2018-04-30T04:42:13.318Z,99.90
2018-04-30T04:47:16.200Z,99.90
2018-04-30T04:52:19.035Z,99.90
2018-04-30T04:57:22.704Z,99.90
2018-04-30T05:02:25.606Z,99.90
2018-04-30T05:07:28.486Z,99.90
2018-04-30T05:12:31.404Z,99.90
2018-04-30T05:17:36.919Z,99.90
2018-04-30T05:22:40.605Z,99.90
2018-04-30T05:27:45.153Z,99.90
2018-04-30T05:32:49.577Z,99.90
2018-04-30T05:37:54.535Z,99.90
2018-04-30T05:42:57.550Z,99.90
2018-04-30T05:48:00.864Z,99.90
2018-04-30T05:53:04.255Z,99.90
2018-04-30T05:58:08.509Z,99.90
2018-04-30T06:03:11.724Z,99.90
2018-04-30T06:08:15.667Z,99.90
2018-04-30T06:13:21.674Z,99.90
2018-04-30T06:18:24.648Z,99.90
2018-04-30T06:23:28.625Z,99.90
2018-04-30T06:28:32.212Z,99.90
2018-04-30T06:33:35.253Z,99.90
2018-04-30T06:38:39.045Z,99.90
2018-04-30T06:49:17.275Z,99.90
2018-04-30T06:54:21.063Z,99.90
2018-04-30T06:59:23.979Z,99.90
2018-04-30T07:04:26.828Z,99.90
2018-04-30T07:09:29.739Z,99.90
2018-04-30T07:14:32.560Z,99.90
2018-04-30T07:19:35.716Z,99.90
2018-04-30T07:24:39.332Z,99.90
2018-04-30T07:29:42.914Z,99.90
2018-04-30T07:40:24.345Z,99.90
2018-04-30T07:45:27.140Z,99.90
2018-04-30T07:50:30.279Z,99.90
2018-04-30T07:55:33.074Z,99.90
2018-04-30T08:00:36.626Z,99.90
2018-04-30T08:05:39.439Z,99.90
2018-04-30T08:10:42.765Z,99.90
2018-04-30T08:15:45.796Z,99.90
2018-04-30T08:20:50.185Z,99.90
2018-04-30T08:31:31.453Z,99.90
2018-04-30T08:36:34.340Z,99.90
2018-04-30T08:41:37.636Z,99.90
2018-04-30T08:46:40.543Z,99.90
2018-04-30T08:51:43.417Z,99.90
2018-04-30T08:56:46.269Z,99.90
2018-04-30T09:01:49.351Z,99.90
2018-04-30T09:06:52.390Z,99.90
2018-04-30T09:11:56.020Z,99.90
2018-04-30T09:17:00.156Z,99.90
2018-04-30T09:22:03.042Z,99.90
2018-04-30T09:27:06.660Z,99.90
2018-04-30T09:32:09.614Z,99.90
2018-04-30T09:37:12.563Z,99.90
2018-04-30T09:42:16.305Z,99.90
2018-04-30T09:47:19.666Z,99.90
2018-04-30T09:52:22.620Z,99.90
2018-04-30T09:57:25.522Z,99.90
2018-04-30T10:02:28.416Z,99.90
2018-04-30T10:07:39.543Z,99.90
2018-04-30T10:12:46.225Z,99.90
2018-04-30T10:17:49.130Z,99.90
2018-04-30T10:22:59.131Z,99.90
2018-04-30T10:28:03.541Z,99.90
2018-04-30T10:33:15.529Z,99.90
2018-04-30T10:38:26.014Z,99.50
2018-04-30T10:43:29.649Z,98.00
2018-04-30T10:48:33.767Z,98.20
2018-04-30T10:53:36.710Z,98.00
2018-04-30T10:58:46.506Z,97.40
2018-04-30T11:03:50.285Z,97.00
2018-04-30T11:08:54.637Z,96.70
2018-04-30T11:19:13.717Z,96.60
2018-04-30T11:24:16.619Z,96.30
2018-04-30T11:29:22.000Z,95.60
2018-04-30T11:34:24.967Z,95.30
2018-04-30T11:39:27.928Z,93.40
2018-04-30T11:44:33.166Z,94.50
2018-04-30T11:49:36.440Z,92.40
2018-04-30T11:54:40.228Z,91.30
2018-04-30T11:59:43.126Z,91.30
2018-04-30T12:04:46.196Z,90.10
2018-04-30T12:09:49.900Z,88.30
2018-04-30T12:14:53.140Z,88.30
2018-04-30T12:19:55.999Z,84.90
2018-04-30T12:24:59.048Z,84.00
2018-04-30T12:30:03.229Z,79.20
2018-04-30T12:35:06.305Z,79.20
2018-04-30T12:40:09.190Z,79.30
2018-04-30T12:45:12.776Z,79.80
2018-04-30T12:50:16.104Z,80.10
2018-04-30T12:55:19.723Z,76.20
2018-04-30T13:00:22.623Z,76.10
2018-04-30T13:05:26.305Z,81.70
2018-04-30T13:10:29.679Z,81.70
2018-04-30T13:15:32.771Z,80.00
2018-04-30T13:25:43.310Z,75.50
2018-04-30T13:30:46.295Z,71.60
2018-04-30T13:35:49.266Z,70.60
2018-04-30T13:40:52.109Z,70.90
2018-04-30T13:45:55.795Z,70.50
2018-04-30T13:50:58.901Z,70.40
2018-04-30T13:56:02.467Z,70.80
2018-04-30T14:01:05.304Z,68.90
2018-04-30T14:06:08.165Z,68.40
2018-04-30T14:11:12.104Z,66.00
2018-04-30T14:16:15.070Z,65.80
2018-04-30T14:21:17.896Z,68.20
2018-04-30T14:26:20.727Z,67.00
2018-04-30T14:31:23.908Z,67.20
2018-04-30T14:36:26.723Z,68.50
2018-04-30T14:41:29.639Z,69.70
2018-04-30T14:46:34.561Z,68.50
2018-04-30T14:51:37.510Z,68.70
2018-04-30T14:56:40.448Z,71.30
2018-04-30T15:01:43.238Z,71.50
2018-04-30T15:06:46.853Z,71.20
2018-04-30T15:11:49.805Z,71.10
2018-04-30T15:16:52.640Z,73.40
2018-04-30T15:21:55.970Z,75.60
2018-04-30T15:26:59.073Z,74.20
2018-04-30T15:32:02.104Z,73.40
2018-04-30T15:37:04.946Z,68.80
2018-04-30T15:42:07.908Z,71.20
2018-04-30T15:47:11.211Z,70.80
2018-04-30T15:52:14.788Z,71.30
2018-04-30T15:57:17.636Z,71.40
2018-04-30T16:02:21.355Z,72.60
2018-04-30T16:07:25.022Z,71.30
2018-04-30T16:12:27.887Z,71.20
2018-04-30T16:17:30.674Z,71.70
2018-04-30T16:22:34.298Z,72.80
2018-04-30T16:27:38.064Z,71.00
2018-04-30T16:32:40.889Z,71.00
2018-04-30T16:37:43.875Z,70.90
2018-04-30T16:42:47.090Z,74.00
2018-04-30T16:47:50.843Z,85.20
2018-04-30T16:52:54.537Z,82.40
2018-04-30T16:57:57.364Z,82.30
2018-04-30T17:03:01.002Z,78.40
2018-04-30T17:08:03.860Z,78.40
2018-04-30T17:13:06.800Z,76.00
2018-04-30T17:18:09.623Z,76.50
2018-04-30T17:23:12.481Z,74.70
2018-04-30T17:28:16.083Z,72.20
2018-04-30T17:33:18.982Z,72.10
2018-04-30T17:38:21.931Z,73.90
2018-04-30T17:43:24.862Z,75.10
2018-04-30T17:48:27.756Z,77.70
2018-04-30T17:53:32.544Z,79.70
2018-04-30T17:58:35.504Z,81.50
2018-04-30T18:03:38.310Z,83.30
2018-04-30T18:08:41.233Z,86.40
2018-04-30T18:13:44.145Z,88.00
2018-04-30T18:18:47.347Z,90.60
2018-04-30T18:23:52.197Z,91.10
2018-04-30T18:28:55.175Z,90.70
2018-04-30T18:33:58.079Z,91.90
2018-04-30T18:39:01.084Z,92.40
2018-04-30T18:44:04.739Z,92.60
2018-04-30T18:49:08.633Z,92.90
2018-04-30T18:54:13.366Z,92.20
2018-04-30T18:59:22.452Z,92.10
2018-04-30T19:04:26.775Z,92.10
2018-04-30T19:09:29.730Z,92.30
2018-04-30T19:14:33.051Z,92.50
2018-04-30T19:19:35.971Z,93.10
2018-04-30T19:24:38.936Z,92.50
2018-04-30T19:29:42.040Z,93.00
2018-04-30T19:34:46.079Z,93.00
2018-04-30T20:30:24.346Z,93.60
2018-04-30T20:35:27.230Z,93.80
2018-04-30T20:40:30.446Z,93.70
2018-04-30T20:45:33.609Z,93.80
2018-04-30T20:50:36.537Z,93.70
2018-04-30T20:55:41.194Z,93.70
2018-04-30T21:00:45.986Z,93.90
2018-04-30T21:05:48.856Z,93.30
2018-04-30T21:10:53.234Z,94.30
2018-04-30T21:15:56.080Z,94.30
2018-04-30T21:20:58.904Z,94.60
2018-04-30T21:26:01.701Z,95.10
2018-04-30T21:31:04.579Z,95.30
2018-04-30T21:36:07.407Z,95.50
2018-04-30T21:41:10.213Z,95.70
2018-04-30T21:46:13.136Z,95.80
2018-04-30T21:51:15.892Z,96.00
2018-04-30T21:56:19.867Z,95.90
2018-04-30T22:01:24.784Z,95.90
2018-04-30T22:06:39.970Z,96.00
2018-04-30T22:11:43.948Z,96.80
2018-04-30T22:16:47.655Z,96.70
2018-04-30T22:21:51.522Z,97.00
2018-04-30T22:26:56.999Z,96.70
2018-04-30T22:31:59.802Z,96.60
2018-04-30T22:37:02.623Z,96.50
2018-04-30T22:42:05.409Z,96.60
2018-04-30T22:47:08.206Z,96.60
2018-04-30T22:52:12.929Z,96.30
2018-04-30T22:57:18.295Z,96.90
2018-04-30T23:02:21.932Z,97.30
2018-04-30T23:07:28.880Z,97.20
2018-04-30T23:12:34.212Z,97.80
2018-04-30T23:17:38.837Z,97.90
2018-04-30T23:22:43.905Z,98.20
2018-04-30T23:27:48.545Z,98.50
2018-04-30T23:32:52.829Z,99.00
2018-04-30T23:37:55.631Z,99.60
2018-04-30T23:42:59.686Z,99.90
2018-04-30T23:48:03.617Z,99.90
2018-04-30T23:53:07.132Z,99.90
2018-04-30T23:58:10.601Z,99.90
